createdAt,value
2018-06-15T00:00:28.859Z,16.42
2018-06-15T00:02:34.807Z,17.62
2018-06-15T00:04:40.148Z,17.38
2018-06-15T00:06:45.061Z,17.36
2018-06-15T00:08:50.021Z,17.29
2018-06-15T00:10:55.217Z,17.44
2018-06-15T00:13:00.231Z,17.37
2018-06-15T00:15:05.413Z,17.24
2018-06-15T00:17:10.465Z,17.18
2018-06-15T00:19:15.663Z,17.37
2018-06-15T00:21:20.616Z,17.13
2018-06-15T00:23:25.750Z,17.52
2018-06-15T00:25:30.766Z,17.40
2018-06-15T00:27:36.069Z,17.15
2018-06-15T00:29:41.045Z,16.95
2018-06-15T00:31:46.196Z,17.01
2018-06-15T00:33:51.113Z,16.94
2018-06-15T00:35:56.127Z,17.02
2018-06-15T00:38:01.175Z,16.70
2018-06-15T00:40:06.169Z,16.92
2018-06-15T00:42:11.204Z,17.11
2018-06-15T00:44:16.348Z,16.96
2018-06-15T00:46:21.279Z,16.77
2018-06-15T00:48:26.426Z,16.66
2018-06-15T00:50:31.149Z,16.77
2018-06-15T00:52:36.219Z,16.86
2018-06-15T00:54:41.097Z,16.67
2018-06-15T00:57:55.127Z,16.64
2018-06-15T00:59:59.883Z,16.61
2018-06-15T01:02:05.002Z,16.51
2018-06-15T01:04:09.737Z,16.50
2018-06-15T01:06:14.985Z,16.72
2018-06-15T01:08:19.981Z,16.74
2018-06-15T01:10:24.866Z,16.61
2018-06-15T01:12:29.872Z,16.80
2018-06-15T01:14:34.984Z,16.56
2018-06-15T01:16:41.940Z,16.74
2018-06-15T01:18:46.888Z,16.72
2018-06-15T01:20:51.831Z,16.65
2018-06-15T01:22:56.752Z,16.58
2018-06-15T01:25:01.760Z,16.53
2018-06-15T01:27:06.956Z,16.51
2018-06-15T01:29:11.682Z,16.45
2018-06-15T01:31:16.782Z,16.48
2018-06-15T01:33:21.627Z,16.45
2018-06-15T01:35:26.445Z,16.45
2018-06-15T01:37:31.234Z,16.40
2018-06-15T01:39:35.994Z,16.53
2018-06-15T01:41:40.693Z,16.50
2018-06-15T01:43:45.446Z,16.48
2018-06-15T01:45:50.416Z,16.49
2018-06-15T01:47:55.209Z,16.47
2018-06-15T01:49:59.973Z,16.47
2018-06-15T01:52:04.756Z,16.48
2018-06-15T01:54:09.792Z,16.49
2018-06-15T01:56:14.688Z,16.53
2018-06-15T01:58:19.427Z,16.56
2018-06-15T02:00:24.109Z,16.55
2018-06-15T02:02:28.807Z,16.59
2018-06-15T02:04:33.596Z,16.60
2018-06-15T02:06:38.224Z,16.62
2018-06-15T02:08:42.949Z,16.44
2018-06-15T02:10:47.647Z,16.64
2018-06-15T02:12:52.396Z,16.67
2018-06-15T02:14:57.228Z,16.69
2018-06-15T02:17:01.902Z,16.70
2018-06-15T02:19:06.576Z,16.69
2018-06-15T02:21:11.340Z,16.67
2018-06-15T02:23:16.133Z,16.63
2018-06-15T02:25:21.007Z,16.57
2018-06-15T02:27:25.831Z,16.46
2018-06-15T02:29:30.824Z,16.70
2018-06-15T02:31:35.679Z,16.74
2018-06-15T02:33:40.652Z,16.63
2018-06-15T02:35:45.515Z,16.60
2018-06-15T02:37:50.330Z,16.76
2018-06-15T02:39:55.208Z,16.77
2018-06-15T02:42:00.322Z,16.60
2018-06-15T02:44:05.326Z,16.85
2018-06-15T02:46:10.357Z,17.07
2018-06-15T02:48:15.236Z,17.02
2018-06-15T02:50:20.136Z,17.44
2018-06-15T02:52:24.993Z,17.48
2018-06-15T02:54:29.616Z,17.19
2018-06-15T02:56:34.333Z,17.11
2018-06-15T02:58:39.181Z,16.99
2018-06-15T03:00:44.032Z,17.08
2018-06-15T03:02:48.743Z,17.19
2018-06-15T03:04:53.561Z,16.93
2018-06-15T03:06:58.358Z,17.16
2018-06-15T03:09:03.262Z,17.10
2018-06-15T03:11:08.136Z,17.04
2018-06-15T03:13:12.980Z,16.95
2018-06-15T03:15:17.770Z,17.08
2018-06-15T03:17:22.735Z,17.06
2018-06-15T03:19:27.579Z,16.98
2018-06-15T03:21:32.245Z,16.95
2018-06-15T03:23:37.150Z,16.91
2018-06-15T03:25:42.018Z,17.17
2018-06-15T03:27:47.136Z,17.13
2018-06-15T03:29:52.010Z,16.88
2018-06-15T03:31:56.720Z,16.93
2018-06-15T03:34:01.433Z,16.84
2018-06-15T03:36:06.348Z,16.74
2018-06-15T03:38:11.144Z,16.72
2018-06-15T03:40:16.019Z,16.69
2018-06-15T03:42:20.829Z,16.67
2018-06-15T03:44:25.627Z,16.81
2018-06-15T03:46:30.607Z,16.73
2018-06-15T03:48:35.586Z,16.75
2018-06-15T03:50:40.274Z,16.79
2018-06-15T03:52:45.040Z,16.82
2018-06-15T03:54:49.693Z,16.83
2018-06-15T03:56:54.574Z,16.93
2018-06-15T03:58:59.326Z,16.91
2018-06-15T04:01:04.232Z,16.76
2018-06-15T04:03:08.906Z,16.86
2018-06-15T04:05:13.603Z,17.16
2018-06-15T04:07:18.425Z,17.16
2018-06-15T04:09:23.047Z,17.07
2018-06-15T04:11:27.714Z,16.91
2018-06-15T04:13:32.425Z,16.82
2018-06-15T04:15:37.114Z,16.95
2018-06-15T04:17:42.046Z,16.94
2018-06-15T04:19:46.809Z,16.94
2018-06-15T04:21:51.615Z,16.90
2018-06-15T04:23:56.531Z,16.90
2018-06-15T04:26:01.457Z,17.00
2018-06-15T04:28:06.554Z,16.96
2018-06-15T04:30:11.467Z,16.90
2018-06-15T04:32:16.489Z,17.00
2018-06-15T04:34:21.390Z,16.98
2018-06-15T04:36:26.370Z,17.03
2018-06-15T04:38:31.433Z,16.98
2018-06-15T04:40:36.485Z,16.97
2018-06-15T04:42:41.571Z,16.92
2018-06-15T04:44:46.722Z,17.04
2018-06-15T04:46:51.838Z,16.97
2018-06-15T04:48:56.922Z,17.38
2018-06-15T04:51:02.270Z,17.45
2018-06-15T04:53:07.323Z,17.51
2018-06-15T04:55:12.528Z,17.52
2018-06-15T04:57:17.643Z,17.63
2018-06-15T04:59:22.594Z,17.28
2018-06-15T05:01:27.516Z,17.47
2018-06-15T05:03:32.961Z,17.42
2018-06-15T05:05:38.058Z,17.50
2018-06-15T05:07:43.048Z,17.74
2018-06-15T05:09:48.006Z,17.57
2018-06-15T05:11:53.010Z,17.34
2018-06-15T05:13:58.245Z,17.22
2018-06-15T05:16:03.028Z,17.59
2018-06-15T05:18:08.033Z,17.38
2018-06-15T05:20:13.009Z,17.32
2018-06-15T05:22:18.169Z,17.79
2018-06-15T05:24:23.138Z,17.51
2018-06-15T05:26:28.359Z,17.29
2018-06-15T05:28:33.485Z,17.35
2018-06-15T05:30:38.372Z,17.52
2018-06-15T05:32:43.410Z,17.53
2018-06-15T05:34:48.443Z,17.33
2018-06-15T05:36:53.480Z,17.23
2018-06-15T05:38:58.632Z,17.43
2018-06-15T05:41:03.664Z,17.49
2018-06-15T05:43:08.665Z,16.98
2018-06-15T05:45:13.637Z,17.45
2018-06-15T05:47:18.836Z,17.50
2018-06-15T05:49:23.724Z,17.11
2018-06-15T05:51:28.680Z,17.61
2018-06-15T05:53:34.345Z,17.73
2018-06-15T05:55:39.386Z,17.75
2018-06-15T05:57:44.453Z,17.87
2018-06-15T05:59:51.759Z,17.98
2018-06-15T06:01:58.455Z,18.06
2018-06-15T06:04:06.957Z,18.10
2018-06-15T06:06:11.909Z,18.09
2018-06-15T06:08:19.004Z,18.12
2018-06-15T06:10:24.210Z,18.31
2018-06-15T06:12:29.303Z,18.33
2018-06-15T06:14:34.231Z,18.14
2018-06-15T06:16:39.246Z,18.44
2018-06-15T06:18:43.999Z,18.22
2018-06-15T06:20:49.023Z,18.20
2018-06-15T06:22:53.845Z,18.21
2018-06-15T06:24:58.964Z,18.19
2018-06-15T06:27:03.916Z,18.17
2018-06-15T06:29:08.774Z,18.23
2018-06-15T06:31:13.706Z,18.36
2018-06-15T06:33:18.627Z,18.07
2018-06-15T06:35:23.618Z,18.07
2018-06-15T06:37:28.611Z,17.95
2018-06-15T06:39:33.531Z,17.92
2018-06-15T06:41:38.490Z,18.13
2018-06-15T06:43:43.338Z,18.17
2018-06-15T06:45:48.296Z,18.17
2018-06-15T06:47:53.192Z,18.31
2018-06-15T06:49:58.151Z,18.32
2018-06-15T06:52:02.956Z,18.59
2018-06-15T06:54:07.706Z,18.70
2018-06-15T06:56:12.679Z,18.62
2018-06-15T06:58:17.464Z,18.27
2018-06-15T07:00:22.307Z,18.20
2018-06-15T07:02:27.317Z,18.28
2018-06-15T07:04:32.192Z,18.18
2018-06-15T07:06:37.238Z,18.17
2018-06-15T07:08:42.377Z,17.63
2018-06-15T07:10:47.335Z,18.19
2018-06-15T07:12:52.194Z,18.36
2018-06-15T07:14:58.287Z,18.48
2018-06-15T07:17:03.213Z,18.48
2018-06-15T07:19:08.161Z,18.51
2018-06-15T07:21:13.265Z,18.77
2018-06-15T07:23:18.338Z,18.88
2018-06-15T07:25:23.035Z,18.81
2018-06-15T07:27:27.978Z,18.45
2018-06-15T07:29:32.753Z,18.97
2018-06-15T07:31:37.699Z,19.07
2018-06-15T07:33:42.808Z,19.17
2018-06-15T07:35:48.007Z,19.26
2018-06-15T07:37:53.048Z,19.30
2018-06-15T07:39:57.952Z,19.35
2018-06-15T07:42:03.053Z,18.92
2018-06-15T07:44:08.294Z,19.57
2018-06-15T07:46:13.180Z,19.44
2018-06-15T07:48:31.347Z,19.51
2018-06-15T07:50:36.333Z,19.59
2018-06-15T07:52:41.145Z,19.65
2018-06-15T07:54:49.012Z,19.71
2018-06-15T07:56:57.085Z,19.85
2018-06-15T07:59:01.962Z,20.26
2018-06-15T08:01:06.978Z,20.14
2018-06-15T08:03:11.977Z,20.01
2018-06-15T08:05:17.278Z,20.08
2018-06-15T08:07:22.417Z,19.83
2018-06-15T08:09:27.818Z,20.24
2018-06-15T08:11:33.051Z,20.37
2018-06-15T08:13:38.139Z,20.39
2018-06-15T08:15:43.444Z,20.40
2018-06-15T08:17:48.525Z,20.52
2018-06-15T08:19:53.557Z,20.23
2018-06-15T08:21:58.563Z,20.38
2018-06-15T08:24:03.539Z,20.41
2018-06-15T08:26:08.569Z,19.78
2018-06-15T08:28:13.560Z,20.01
2018-06-15T08:30:18.599Z,20.09
2018-06-15T08:32:23.534Z,20.01
2018-06-15T08:34:28.449Z,19.97
2018-06-15T08:36:33.393Z,20.18
2018-06-15T08:38:38.520Z,20.15
2018-06-15T08:40:43.670Z,20.22
2018-06-15T08:42:49.255Z,20.28
2018-06-15T08:44:54.181Z,20.38
2018-06-15T08:46:59.102Z,20.37
2018-06-15T08:49:04.300Z,20.37
2018-06-15T08:51:09.248Z,20.83
2018-06-15T08:53:14.279Z,20.90
2018-06-15T08:55:19.357Z,21.33
2018-06-15T08:57:24.416Z,21.26
2018-06-15T08:59:29.387Z,21.24
2018-06-15T09:01:34.686Z,21.26
2018-06-15T09:03:39.659Z,21.39
2018-06-15T09:05:45.069Z,21.61
2018-06-15T09:07:49.963Z,20.88
2018-06-15T09:09:54.768Z,21.18
2018-06-15T09:11:59.708Z,21.23
2018-06-15T09:14:04.738Z,21.24
2018-06-15T09:16:09.654Z,21.28
2018-06-15T09:18:14.945Z,21.23
2018-06-15T09:20:20.195Z,21.29
2018-06-15T09:22:25.585Z,21.26
2018-06-15T09:24:30.976Z,21.32
2018-06-15T09:26:36.032Z,21.48
2018-06-15T09:28:41.167Z,21.11
2018-06-15T09:30:46.185Z,21.13
2018-06-15T09:32:51.162Z,21.05
2018-06-15T09:34:55.896Z,21.00
2018-06-15T09:37:00.729Z,20.66
2018-06-15T09:39:08.026Z,20.62
2018-06-15T09:41:12.777Z,20.82
2018-06-15T09:43:17.648Z,21.17
2018-06-15T09:45:22.426Z,21.60
2018-06-15T09:47:27.189Z,21.28
2018-06-15T09:49:32.150Z,21.46
2018-06-15T09:51:37.206Z,21.75
2018-06-15T09:53:42.125Z,21.87
2018-06-15T09:55:47.119Z,22.24
2018-06-15T09:57:52.377Z,22.37
2018-06-15T09:59:57.294Z,22.39
2018-06-15T10:02:02.098Z,21.76
2018-06-15T10:04:07.045Z,21.59
2018-06-15T10:06:12.047Z,21.84
2018-06-15T10:08:16.969Z,22.12
2018-06-15T10:10:22.050Z,22.16
2018-06-15T10:12:27.964Z,22.28
2018-06-15T10:14:32.809Z,22.27
2018-06-15T10:16:37.643Z,22.56
2018-06-15T10:18:42.395Z,22.11
2018-06-15T10:20:47.367Z,22.07
2018-06-15T10:22:52.332Z,21.67
2018-06-15T10:24:57.459Z,21.82
2018-06-15T10:27:03.590Z,21.87
2018-06-15T10:29:08.854Z,22.07
2018-06-15T10:31:14.206Z,21.74
2018-06-15T10:33:19.273Z,22.39
2018-06-15T10:35:24.379Z,22.40
2018-06-15T10:37:29.573Z,22.63
2018-06-15T10:39:39.177Z,22.60
2018-06-15T10:41:43.862Z,22.69
2018-06-15T10:43:48.845Z,22.56
2018-06-15T10:45:53.587Z,22.63
2018-06-15T10:48:00.818Z,22.21
2018-06-15T10:50:06.707Z,22.27
2018-06-15T10:52:12.195Z,22.01
2018-06-15T10:54:17.121Z,22.35
2018-06-15T10:56:22.142Z,22.13
2018-06-15T10:58:27.354Z,22.43
2018-06-15T11:00:32.379Z,22.38
2018-06-15T11:02:37.478Z,22.55
2018-06-15T11:04:42.724Z,22.83
2018-06-15T11:06:48.437Z,22.99
2018-06-15T11:08:53.423Z,23.04
2018-06-15T11:10:58.478Z,23.20
2018-06-15T11:13:03.441Z,23.31
2018-06-15T11:15:08.524Z,23.48
2018-06-15T11:17:13.628Z,23.55
2018-06-15T11:19:18.691Z,23.83
2018-06-15T11:21:23.761Z,23.14
2018-06-15T11:23:28.730Z,23.18
2018-06-15T11:25:33.885Z,23.59
2018-06-15T11:27:38.976Z,23.27
2018-06-15T11:29:44.272Z,23.54
2018-06-15T11:31:51.569Z,23.24
2018-06-15T11:33:56.757Z,23.71
2018-06-15T11:36:02.508Z,23.40
2018-06-15T11:38:07.737Z,23.54
2018-06-15T11:40:12.916Z,23.59
2018-06-15T11:42:17.729Z,23.77
2018-06-15T11:44:22.611Z,23.89
2018-06-15T11:46:27.674Z,23.96
2018-06-15T11:48:32.797Z,23.75
2018-06-15T11:50:37.984Z,23.90
2018-06-15T11:52:43.321Z,24.14
2018-06-15T11:54:48.422Z,24.24
2018-06-15T11:56:53.569Z,24.40
2018-06-15T11:58:58.574Z,24.13
2018-06-15T12:01:03.545Z,24.13
2018-06-15T12:03:08.429Z,24.30
2018-06-15T12:05:13.797Z,24.42
2018-06-15T12:07:18.831Z,24.45
2018-06-15T12:09:23.939Z,24.37
2018-06-15T12:11:29.090Z,24.11
2018-06-15T12:13:34.437Z,24.19
2018-06-15T12:15:39.287Z,24.21
2018-06-15T12:17:44.098Z,24.03
2018-06-15T12:19:48.941Z,23.85
2018-06-15T12:21:54.030Z,24.12
2018-06-15T12:23:59.049Z,23.81
2018-06-15T12:26:03.986Z,24.05
2018-06-15T12:28:09.491Z,24.50
2018-06-15T12:30:14.943Z,22.95
2018-06-15T12:32:19.900Z,24.62
2018-06-15T12:34:24.642Z,24.74
2018-06-15T12:36:29.583Z,24.57
2018-06-15T12:38:34.489Z,24.62
2018-06-15T12:40:39.563Z,24.67
2018-06-15T12:42:44.600Z,24.47
2018-06-15T12:44:49.661Z,24.03
2018-06-15T12:47:01.149Z,24.32
2018-06-15T12:49:06.374Z,24.30
2018-06-15T12:51:12.549Z,24.28
2018-06-15T12:53:17.395Z,23.94
2018-06-15T12:55:22.788Z,23.49
2018-06-15T12:57:27.732Z,24.21
2018-06-15T12:59:32.684Z,24.78
2018-06-15T13:01:37.693Z,24.67
2018-06-15T13:03:45.599Z,24.97
2018-06-15T13:05:51.200Z,24.98
2018-06-15T13:07:56.274Z,24.97
2018-06-15T13:10:01.634Z,25.02
2018-06-15T13:12:06.681Z,25.14
2018-06-15T13:14:11.667Z,25.08
2018-06-15T13:16:16.601Z,24.98
2018-06-15T13:18:21.631Z,25.00
2018-06-15T13:20:26.698Z,25.06
2018-06-15T13:22:31.798Z,25.19
2018-06-15T13:24:43.317Z,25.42
2018-06-15T13:26:48.322Z,25.47
2018-06-15T13:28:53.335Z,25.45
2018-06-15T13:30:58.464Z,25.15
2018-06-15T13:33:05.692Z,24.75
2018-06-15T13:35:15.442Z,24.86
2018-06-15T13:37:22.098Z,24.54
2018-06-15T13:39:28.825Z,24.66
2018-06-15T13:41:37.502Z,25.10
2018-06-15T13:43:43.375Z,25.36
2018-06-15T13:45:49.571Z,24.82
2018-06-15T13:47:56.106Z,24.28
2018-06-15T13:50:01.978Z,24.17
2018-06-15T13:52:12.766Z,24.60
2018-06-15T13:54:17.807Z,24.83
2018-06-15T13:56:27.699Z,24.49
2018-06-15T13:58:36.945Z,24.71
2018-06-15T14:00:45.553Z,24.72
2018-06-15T14:02:52.953Z,24.47
2018-06-15T14:04:58.187Z,24.89
2018-06-15T14:07:03.652Z,24.67
2018-06-15T14:09:09.905Z,24.63
2018-06-15T14:11:14.897Z,24.85
2018-06-15T14:13:19.949Z,25.02
2018-06-15T14:15:24.962Z,25.26
2018-06-15T14:17:30.089Z,25.34
2018-06-15T14:19:34.981Z,25.90
2018-06-15T14:21:39.972Z,25.85
2018-06-15T14:23:44.806Z,26.03
2018-06-15T14:25:49.787Z,25.83
2018-06-15T14:27:54.800Z,25.98
2018-06-15T14:29:59.963Z,26.13
2018-06-15T14:32:04.953Z,26.11
2018-06-15T14:34:09.985Z,26.03
2018-06-15T14:36:14.909Z,26.41
2018-06-15T14:38:20.034Z,26.03
2018-06-15T14:40:25.096Z,26.31
2018-06-15T14:42:30.236Z,26.15
2018-06-15T14:44:35.389Z,25.66
2018-06-15T14:46:40.506Z,25.73
2018-06-15T14:48:45.386Z,25.58
2018-06-15T14:50:50.610Z,25.32
2018-06-15T14:52:56.536Z,25.18
2018-06-15T14:55:01.549Z,25.16
2018-06-15T14:57:06.646Z,25.38
2018-06-15T14:59:11.906Z,25.12
2018-06-15T15:01:16.916Z,24.66
2018-06-15T15:03:22.064Z,24.55
2018-06-15T15:05:27.066Z,24.65
2018-06-15T15:07:32.847Z,24.56
2018-06-15T15:09:41.765Z,24.66
2018-06-15T15:11:47.095Z,25.07
2018-06-15T15:13:54.942Z,24.98
2018-06-15T15:15:59.765Z,25.22
2018-06-15T15:18:05.224Z,25.42
2018-06-15T15:20:10.251Z,25.12
2018-06-15T15:22:18.271Z,25.12
2018-06-15T15:24:24.694Z,24.99
2018-06-15T15:26:33.899Z,25.01
2018-06-15T15:28:40.604Z,25.60
2018-06-15T15:30:47.945Z,25.65
2018-06-15T15:32:56.319Z,25.87
2018-06-15T15:35:03.134Z,25.27
2018-06-15T15:37:09.305Z,25.49
2018-06-15T15:39:16.915Z,25.57
2018-06-15T15:41:22.199Z,25.73
2018-06-15T15:43:37.393Z,25.75
2018-06-15T15:45:42.851Z,25.63
2018-06-15T15:47:47.729Z,26.09
2018-06-15T15:49:52.970Z,25.82
2018-06-15T15:51:58.734Z,25.87
2018-06-15T15:54:03.995Z,25.83
2018-06-15T15:56:09.172Z,26.14
2018-06-15T15:58:14.289Z,26.00
2018-06-15T16:00:19.222Z,25.99
2018-06-15T16:02:24.478Z,25.93
2018-06-15T16:04:29.534Z,26.03
2018-06-15T16:06:34.671Z,26.03
2018-06-15T16:08:39.946Z,26.06
2018-06-15T16:10:44.973Z,26.65
2018-06-15T16:12:50.046Z,26.24
2018-06-15T16:14:55.252Z,26.28
2018-06-15T16:17:00.439Z,26.09
2018-06-15T16:19:05.882Z,26.60
2018-06-15T16:21:11.864Z,26.93
2018-06-15T16:23:16.889Z,26.80
2018-06-15T16:25:21.826Z,26.51
2018-06-15T16:27:26.972Z,27.25
2018-06-15T16:29:31.918Z,27.36
2018-06-15T16:31:37.029Z,27.32
2018-06-15T16:33:42.075Z,27.97
2018-06-15T16:35:46.864Z,27.32
2018-06-15T16:37:51.769Z,26.89
2018-06-15T16:39:57.064Z,27.36
2018-06-15T16:42:01.736Z,27.55
2018-06-15T16:44:06.682Z,28.30
2018-06-15T16:46:11.931Z,27.72
2018-06-15T16:48:16.806Z,27.04
2018-06-15T16:50:21.766Z,27.04
2018-06-15T16:52:26.868Z,26.97
2018-06-15T16:54:32.549Z,26.63
2018-06-15T16:56:37.505Z,26.62
2018-06-15T16:58:42.587Z,26.76
2018-06-15T17:00:47.736Z,27.16
2018-06-15T17:02:52.710Z,26.83
2018-06-15T17:04:57.939Z,27.28
2018-06-15T17:07:02.909Z,27.26
2018-06-15T17:09:10.073Z,27.42
2018-06-15T17:11:15.369Z,27.95
2018-06-15T17:13:20.593Z,28.61
2018-06-15T17:15:25.233Z,28.00
2018-06-15T17:17:30.223Z,27.83
2018-06-15T17:19:35.395Z,28.08
2018-06-15T17:21:40.440Z,27.52
2018-06-15T17:23:45.322Z,28.16
2018-06-15T17:25:50.387Z,27.42
2018-06-15T17:27:55.270Z,27.52
2018-06-15T17:30:00.114Z,27.34
2018-06-15T17:32:05.072Z,27.84
2018-06-15T17:34:10.299Z,27.84
2018-06-15T17:36:15.523Z,27.15
2018-06-15T17:38:20.563Z,27.17
2018-06-15T17:40:25.732Z,27.20
2018-06-15T17:42:30.835Z,26.90
2018-06-15T17:44:35.873Z,27.31
2018-06-15T17:46:40.938Z,26.84
2018-06-15T17:48:46.078Z,26.94
2018-06-15T17:50:51.224Z,26.57
2018-06-15T17:52:56.332Z,26.83
2018-06-15T17:55:02.353Z,26.44
2018-06-15T17:57:07.718Z,26.46
2018-06-15T17:59:13.098Z,26.79
2018-06-15T18:01:18.636Z,26.20
2018-06-15T18:03:25.120Z,25.89
2018-06-15T18:05:31.103Z,25.78
2018-06-15T18:07:40.002Z,25.97
2018-06-15T18:09:45.736Z,26.04
2018-06-15T18:11:50.967Z,25.84
2018-06-15T18:13:56.310Z,26.16
2018-06-15T18:16:01.068Z,25.98
2018-06-15T18:18:05.955Z,25.66
2018-06-15T18:20:11.161Z,25.72
2018-06-15T18:22:16.130Z,25.46
2018-06-15T18:24:20.920Z,25.50
2018-06-15T18:26:25.872Z,25.34
2018-06-15T18:28:31.129Z,25.18
2018-06-15T18:30:36.251Z,24.93
2018-06-15T18:32:41.242Z,24.67
2018-06-15T18:34:46.359Z,24.56
2018-06-15T18:36:51.337Z,24.43
2018-06-15T18:38:56.434Z,24.42
2018-06-15T18:41:01.274Z,24.64
2018-06-15T18:43:06.187Z,24.34
2018-06-15T18:45:11.670Z,24.29
2018-06-15T18:47:16.763Z,24.10
2018-06-15T18:49:21.895Z,23.92
2018-06-15T18:51:26.828Z,24.02
2018-06-15T18:53:32.150Z,24.09
2018-06-15T18:55:37.120Z,24.02
2018-06-15T18:57:42.650Z,24.11
2018-06-15T18:59:47.957Z,23.62
2018-06-15T19:01:53.120Z,23.81
2018-06-15T19:03:58.360Z,23.70
2018-06-15T19:06:03.383Z,23.47
2018-06-15T19:08:08.983Z,23.54
2018-06-15T19:10:14.152Z,23.27
2018-06-15T19:12:19.147Z,23.40
2018-06-15T19:14:24.191Z,23.41
2018-06-15T19:16:29.255Z,23.35
2018-06-15T19:18:34.228Z,23.27
2018-06-15T19:20:39.455Z,23.15
2018-06-15T19:22:44.649Z,23.56
2018-06-15T19:24:49.630Z,23.33
2018-06-15T19:26:54.790Z,23.27
2018-06-15T19:28:59.949Z,23.46
2018-06-15T19:31:05.038Z,23.04
2018-06-15T19:33:10.090Z,23.16
2018-06-15T19:35:15.380Z,22.65
2018-06-15T19:37:20.703Z,22.65
2018-06-15T19:39:25.928Z,22.49
2018-06-15T19:41:31.164Z,22.47
2018-06-15T19:43:36.637Z,22.38
2018-06-15T19:45:41.831Z,22.31
2018-06-15T19:47:47.758Z,22.25
2018-06-15T19:49:53.283Z,22.21
2018-06-15T19:51:58.362Z,22.16
2018-06-15T19:54:03.602Z,22.09
2018-06-15T19:56:08.667Z,21.92
2018-06-15T19:58:13.842Z,21.93
2018-06-15T20:00:19.049Z,21.88
2018-06-15T20:02:24.291Z,21.81
2018-06-15T20:04:29.267Z,21.74
2018-06-15T20:06:34.516Z,21.56
2018-06-15T20:08:39.872Z,21.65
2018-06-15T20:10:45.315Z,21.51
2018-06-15T20:12:52.573Z,21.68
2018-06-15T20:14:59.939Z,21.58
2018-06-15T20:17:08.090Z,21.46
2018-06-15T20:19:16.383Z,21.37
2018-06-15T20:21:23.960Z,21.27
2018-06-15T20:23:33.151Z,21.20
2018-06-15T20:25:42.160Z,21.16
2018-06-15T20:27:50.679Z,21.12
2018-06-15T20:29:59.619Z,21.05
2018-06-15T20:32:07.517Z,21.04
2018-06-15T20:34:14.817Z,20.97
2018-06-15T20:36:20.657Z,20.95
2018-06-15T20:38:26.145Z,20.82
2018-06-15T20:40:34.030Z,20.86
2018-06-15T20:42:40.566Z,20.83
2018-06-15T20:44:47.765Z,20.55
2018-06-15T20:46:53.616Z,20.74
2018-06-15T20:49:02.037Z,20.68
2018-06-15T20:51:08.322Z,20.63
2018-06-15T20:53:14.390Z,20.62
2018-06-15T20:55:19.737Z,20.58
2018-06-15T20:57:24.845Z,20.52
2018-06-15T20:59:30.384Z,20.45
2018-06-15T21:01:37.580Z,20.39
2018-06-15T21:03:42.761Z,20.32
2018-06-15T21:05:47.928Z,20.30
2018-06-15T21:07:53.509Z,20.30
2018-06-15T21:09:58.567Z,20.21
2018-06-15T21:12:03.796Z,20.11
2018-06-15T21:14:09.603Z,20.06
2018-06-15T21:16:15.276Z,20.01
2018-06-15T21:18:20.430Z,19.94
2018-06-15T21:20:25.231Z,19.92
2018-06-15T21:22:31.017Z,19.94
2018-06-15T21:26:48.622Z,20.00
2018-06-15T21:28:55.547Z,20.00
2018-06-15T21:31:01.445Z,19.99
2018-06-15T21:33:07.110Z,20.00
2018-06-15T21:35:12.555Z,20.02
2018-06-15T21:37:18.283Z,20.02
2018-06-15T21:39:24.903Z,20.01
2018-06-15T21:41:30.864Z,20.01
2018-06-15T21:43:37.320Z,19.99
2018-06-15T21:45:43.200Z,19.99
2018-06-15T21:47:48.622Z,20.01
2018-06-15T21:49:53.796Z,20.01
2018-06-15T21:51:59.260Z,20.02
2018-06-15T21:54:04.409Z,20.01
2018-06-15T21:56:09.190Z,19.76
2018-06-15T21:58:14.565Z,20.00
2018-06-15T22:00:19.681Z,19.99
2018-06-15T22:02:24.799Z,19.99
2018-06-15T22:04:29.855Z,19.98
2018-06-15T22:06:34.807Z,19.97
2018-06-15T22:08:40.111Z,19.98
2018-06-15T22:10:45.169Z,19.86
2018-06-15T22:12:49.895Z,19.94
2018-06-15T22:14:54.780Z,19.90
2018-06-15T22:16:59.934Z,19.85
2018-06-15T22:19:05.074Z,19.80
2018-06-15T22:21:10.262Z,19.75
2018-06-15T22:23:15.430Z,19.71
2018-06-15T22:25:20.477Z,19.68
2018-06-15T22:27:25.548Z,19.68
2018-06-15T22:29:30.643Z,19.62
2018-06-15T22:31:35.820Z,19.58
2018-06-15T22:33:40.968Z,19.53
2018-06-15T22:35:46.393Z,19.45
2018-06-15T22:37:51.662Z,19.40
2018-06-15T22:39:56.889Z,19.35
2018-06-15T22:42:02.153Z,19.30
2018-06-15T22:44:07.122Z,19.26
2018-06-15T22:46:12.377Z,19.24
2018-06-15T22:48:17.432Z,19.23
2018-06-15T22:50:22.506Z,19.21
2018-06-15T22:52:27.701Z,19.17
2018-06-15T22:54:32.825Z,19.12
2018-06-15T22:56:37.910Z,19.08
2018-06-15T22:58:43.387Z,19.05
2018-06-15T23:00:48.439Z,18.69
2018-06-15T23:02:57.424Z,18.86
2018-06-15T23:05:02.155Z,18.73
2018-06-15T23:07:07.036Z,18.74
2018-06-15T23:09:12.890Z,18.89
2018-06-15T23:11:20.335Z,18.86
2018-06-15T23:13:25.178Z,18.82
2018-06-15T23:15:30.060Z,18.79
2018-06-15T23:17:35.290Z,18.62
2018-06-15T23:19:40.071Z,18.74
2018-06-15T23:21:44.947Z,18.63
2018-06-15T23:23:49.935Z,18.68
2018-06-15T23:25:54.960Z,18.64
2018-06-15T23:28:00.021Z,18.60
2018-06-15T23:30:05.312Z,18.58
2018-06-15T23:32:10.303Z,18.53
2018-06-15T23:34:15.270Z,18.47
2018-06-15T23:36:20.369Z,18.49
2018-06-15T23:38:25.411Z,18.47
2018-06-15T23:40:30.163Z,18.45
2018-06-15T23:42:35.131Z,18.43
2018-06-15T23:44:39.972Z,18.43
2018-06-15T23:46:44.864Z,18.41
2018-06-15T23:48:49.804Z,18.43
2018-06-15T23:50:54.718Z,17.85
2018-06-15T23:52:59.655Z,18.40
2018-06-15T23:55:04.778Z,18.42
2018-06-15T23:57:09.613Z,18.40
2018-06-15T23:59:14.530Z,18.42
